Weather at Kristianstad Airport

Public forecast

Using degrees Celsius for public forecast. Weather courtesy of forecast.io.

Current aviation weather report (METAR) for Kristianstad Airport

2024/05/20 04:50 (retrieved 36 minutes ago)

ESMK 200450Z 00000KT CAVOK 11/10 Q1013

Closest aviation forecast (TAF) to Kristianstad Airport

Forecast is more than 6 hours old.

Closest forecast is Sandefjord Airport, Torp, 231.5 nm (428.7 km) NNW.

2024/05/19 18:39 (retrieved 11 hours ago)

TAF ENTO 191700Z 1918/2018 21008KT CAVOK BECMG 1921/1923 03010KT